createdAt,value
2022-09-13T00:01:35.080Z,13.30
2022-09-13T00:04:02.330Z,13.20
2022-09-13T00:06:29.212Z,13.20
2022-09-13T00:08:56.410Z,13.30
2022-09-13T00:11:26.445Z,13.30
2022-09-13T00:13:54.057Z,13.40
2022-09-13T00:16:24.597Z,13.40
2022-09-13T00:18:53.018Z,13.50
2022-09-13T00:21:21.989Z,13.50
2022-09-13T00:23:51.348Z,13.60
2022-09-13T00:26:27.069Z,13.70
2022-09-13T00:28:57.407Z,13.70
2022-09-13T00:31:26.516Z,13.70
2022-09-13T00:33:53.910Z,13.70
2022-09-13T00:36:20.940Z,13.70
2022-09-13T00:38:47.926Z,13.70
2022-09-13T00:41:18.378Z,13.60
2022-09-13T00:43:51.784Z,13.60
2022-09-13T00:46:34.684Z,13.60
2022-09-13T00:49:29.157Z,13.70
2022-09-13T00:52:00.865Z,13.70
2022-09-13T00:54:31.650Z,13.80
2022-09-13T00:57:02.532Z,13.80
2022-09-13T00:59:51.363Z,13.80
2022-09-13T01:02:18.888Z,13.80
2022-09-13T01:04:45.887Z,13.80
2022-09-13T01:07:16.008Z,13.90
2022-09-13T01:09:49.064Z,13.90
2022-09-13T01:12:28.678Z,13.90
2022-09-13T01:14:59.694Z,14.00
2022-09-13T01:17:31.300Z,14.00
2022-09-13T01:19:59.904Z,14.10
2022-09-13T01:23:20.097Z,14.10
2022-09-13T01:26:05.148Z,14.20
2022-09-13T01:28:51.083Z,14.20
2022-09-13T01:31:28.599Z,14.10
2022-09-13T01:34:08.213Z,14.20
2022-09-13T01:36:47.216Z,14.10
2022-09-13T01:39:32.907Z,14.10
2022-09-13T01:42:06.440Z,14.10
2022-09-13T01:44:41.829Z,14.10
2022-09-13T01:47:50.143Z,14.10
2022-09-13T01:50:28.586Z,14.10
2022-09-13T01:53:16.750Z,14.10
2022-09-13T01:55:52.988Z,14.10
2022-09-13T01:58:23.089Z,14.10
2022-09-13T02:01:20.350Z,14.00
2022-09-13T02:03:58.338Z,14.00
2022-09-13T02:06:31.838Z,14.00
2022-09-13T02:09:03.341Z,14.00
2022-09-13T02:11:33.305Z,14.00
2022-09-13T02:14:04.244Z,14.00
2022-09-13T02:16:47.442Z,14.00
2022-09-13T02:19:24.692Z,14.10
2022-09-13T02:21:58.978Z,14.10
2022-09-13T02:24:33.452Z,14.10
2022-09-13T02:27:04.099Z,14.10
2022-09-13T02:29:34.043Z,14.00
2022-09-13T02:32:44.392Z,14.00
2022-09-13T02:35:24.175Z,14.00
2022-09-13T02:38:14.106Z,14.00
2022-09-13T02:40:46.515Z,13.90
2022-09-13T02:43:36.300Z,13.80
2022-09-13T02:46:44.399Z,13.70
2022-09-13T02:49:31.881Z,13.70
2022-09-13T02:52:34.882Z,13.70
2022-09-13T02:55:20.428Z,13.70
2022-09-13T02:58:27.481Z,13.60
2022-09-13T03:00:56.026Z,13.60
2022-09-13T03:03:24.152Z,13.60
2022-09-13T03:05:51.153Z,13.60
2022-09-13T03:08:19.170Z,13.60
2022-09-13T03:10:52.256Z,13.60
2022-09-13T03:13:40.280Z,13.50
2022-09-13T03:16:12.839Z,13.50
2022-09-13T03:18:48.874Z,13.50
2022-09-13T03:21:29.687Z,13.50
2022-09-13T03:24:25.433Z,13.50
2022-09-13T03:27:14.897Z,13.50
2022-09-13T03:30:08.721Z,13.50
2022-09-13T03:32:57.104Z,13.50
2022-09-13T03:35:39.146Z,13.50
2022-09-13T03:38:11.437Z,13.40
2022-09-13T03:40:44.618Z,13.40
2022-09-13T03:43:17.849Z,13.40
2022-09-13T03:46:01.243Z,13.40
2022-09-13T03:48:29.602Z,13.40
2022-09-13T03:50:56.539Z,13.40
2022-09-13T03:53:29.236Z,13.40
2022-09-13T03:55:56.104Z,13.40
2022-09-13T03:58:25.745Z,13.40
2022-09-13T04:00:54.959Z,13.40
2022-09-13T04:03:21.928Z,13.40
2022-09-13T04:05:48.908Z,13.40
2022-09-13T04:08:18.417Z,13.30
2022-09-13T04:10:45.312Z,13.30
2022-09-13T04:13:12.770Z,13.30
2022-09-13T04:15:39.725Z,13.30
2022-09-13T04:18:06.741Z,13.40
2022-09-13T04:20:33.810Z,13.30
2022-09-13T04:23:00.773Z,13.30
2022-09-13T04:25:28.006Z,13.30
2022-09-13T04:27:56.363Z,13.30
2022-09-13T04:30:23.513Z,13.30
2022-09-13T04:32:50.656Z,13.30
2022-09-13T04:35:19.990Z,13.30
2022-09-13T04:37:46.903Z,13.30
2022-09-13T04:40:14.710Z,13.20
2022-09-13T04:42:43.825Z,13.20
2022-09-13T04:45:10.971Z,13.20
2022-09-13T04:47:38.183Z,13.20
2022-09-13T04:50:07.179Z,13.20
2022-09-13T04:52:34.374Z,13.20
2022-09-13T04:55:02.047Z,13.20
2022-09-13T04:57:29.880Z,13.20
2022-09-13T04:59:56.824Z,13.20
2022-09-13T05:02:23.735Z,13.20
2022-09-13T05:04:50.882Z,13.20
2022-09-13T05:07:17.967Z,13.20
2022-09-13T05:09:44.906Z,13.20
2022-09-13T05:12:11.891Z,13.20
2022-09-13T05:14:38.799Z,13.20
2022-09-13T05:17:05.812Z,13.20
2022-09-13T05:19:32.694Z,13.30
2022-09-13T05:21:59.718Z,13.20
2022-09-13T05:24:26.709Z,13.20
2022-09-13T05:26:54.229Z,13.20
2022-09-13T05:29:21.174Z,13.20
2022-09-13T05:31:48.133Z,13.20
2022-09-13T05:34:19.963Z,13.20
2022-09-13T05:36:51.642Z,13.20
2022-09-13T05:39:36.446Z,13.20
2022-09-13T05:42:09.216Z,13.20
2022-09-13T05:44:38.903Z,13.10
2022-09-13T05:47:08.696Z,13.10
2022-09-13T05:49:41.853Z,13.10
2022-09-13T05:52:22.345Z,13.10
2022-09-13T05:54:49.241Z,13.10
2022-09-13T05:57:16.129Z,13.10
2022-09-13T05:59:43.727Z,13.20
2022-09-13T06:02:10.800Z,13.20
2022-09-13T06:04:37.777Z,13.10
2022-09-13T06:07:04.820Z,13.10
2022-09-13T06:09:31.773Z,13.10
2022-09-13T06:11:59.329Z,13.10
2022-09-13T06:14:26.190Z,13.10
2022-09-13T06:16:53.069Z,13.10
2022-09-13T06:19:19.985Z,13.10
2022-09-13T06:21:46.946Z,13.10
2022-09-13T06:24:14.987Z,13.10
2022-09-13T06:26:41.859Z,13.10
2022-09-13T06:29:11.728Z,13.10
2022-09-13T06:31:43.786Z,13.10
2022-09-13T06:34:16.298Z,13.00
2022-09-13T06:36:43.566Z,13.10
2022-09-13T06:39:10.444Z,13.10
2022-09-13T06:41:38.000Z,13.10
2022-09-13T06:44:05.448Z,13.10
2022-09-13T06:46:35.776Z,13.10
2022-09-13T06:49:05.437Z,13.10
2022-09-13T06:51:34.185Z,13.10
2022-09-13T06:54:03.941Z,13.10
2022-09-13T06:56:33.139Z,13.10
2022-09-13T06:59:10.618Z,13.20
2022-09-13T07:01:40.311Z,13.20
2022-09-13T07:04:13.173Z,13.20
2022-09-13T07:06:43.427Z,13.20
2022-09-13T07:09:21.782Z,13.20
2022-09-13T07:11:51.008Z,13.30
2022-09-13T07:14:20.926Z,13.30
2022-09-13T07:16:48.120Z,13.40
2022-09-13T07:19:20.569Z,13.40
2022-09-13T07:21:49.866Z,13.50
2022-09-13T07:24:21.013Z,13.50
2022-09-13T07:26:48.397Z,13.50
2022-09-13T07:29:19.220Z,13.60
2022-09-13T07:31:48.912Z,13.70
2022-09-13T07:34:18.833Z,13.70
2022-09-13T07:36:47.013Z,13.80
2022-09-13T07:39:18.181Z,13.80
2022-09-13T07:41:48.289Z,13.90
2022-09-13T07:44:15.474Z,13.90
2022-09-13T07:46:43.863Z,14.00
2022-09-13T07:49:17.228Z,14.10
2022-09-13T07:51:45.210Z,14.10
2022-09-13T07:54:14.841Z,14.10
2022-09-13T07:56:42.274Z,14.20
2022-09-13T07:59:15.716Z,14.20
2022-09-13T08:01:47.857Z,14.20
2022-09-13T08:04:18.038Z,14.20
2022-09-13T08:06:47.007Z,14.20
2022-09-13T08:09:15.096Z,14.20
2022-09-13T08:11:47.635Z,14.20
2022-09-13T08:14:16.664Z,14.30
2022-09-13T08:16:43.608Z,14.30
2022-09-13T08:19:16.199Z,14.40
2022-09-13T08:21:44.341Z,14.40
2022-09-13T08:24:19.693Z,14.50
2022-09-13T08:26:47.668Z,14.50
2022-09-13T08:29:15.721Z,14.60
2022-09-13T08:31:42.751Z,14.60
2022-09-13T08:34:15.177Z,14.70
2022-09-13T08:36:42.974Z,14.80
2022-09-13T08:39:13.671Z,14.80
2022-09-13T08:41:42.187Z,14.80
2022-09-13T08:44:29.752Z,14.80
2022-09-13T08:47:11.569Z,14.80
2022-09-13T08:49:46.533Z,14.80
2022-09-13T08:52:28.732Z,14.90
2022-09-13T08:54:58.289Z,14.90
2022-09-13T08:57:34.599Z,14.80
2022-09-13T09:00:08.072Z,14.90
2022-09-13T09:03:02.317Z,14.90
2022-09-13T09:05:32.451Z,15.00
2022-09-13T09:08:14.433Z,15.00
2022-09-13T09:10:50.898Z,15.10
2022-09-13T09:13:24.384Z,15.10
2022-09-13T09:16:00.940Z,15.10
2022-09-13T09:18:31.332Z,15.10
2022-09-13T09:21:00.845Z,15.10
2022-09-13T09:23:54.213Z,15.20
2022-09-13T09:26:27.183Z,15.30
2022-09-13T09:29:21.734Z,15.40
2022-09-13T09:32:28.689Z,15.40
2022-09-13T09:35:23.043Z,15.50
2022-09-13T09:38:06.255Z,15.60
2022-09-13T09:40:36.084Z,15.60
2022-09-13T09:43:15.385Z,15.60
2022-09-13T09:45:44.796Z,15.70
2022-09-13T09:48:17.097Z,15.70
2022-09-13T09:50:53.173Z,15.90
2022-09-13T09:53:30.661Z,16.00
2022-09-13T09:56:12.836Z,15.90
2022-09-13T09:58:40.748Z,16.00
2022-09-13T10:01:17.119Z,16.10
2022-09-13T10:03:52.254Z,16.30
2022-09-13T10:06:22.529Z,16.40
2022-09-13T10:08:56.361Z,16.50
2022-09-13T10:11:27.285Z,16.60
2022-09-13T10:14:02.534Z,16.80
2022-09-13T10:16:30.887Z,16.80
2022-09-13T10:19:25.109Z,17.00
2022-09-13T10:22:13.000Z,17.10
2022-09-13T10:24:40.721Z,17.10
2022-09-13T10:27:22.938Z,17.00
2022-09-13T10:29:55.456Z,17.00
2022-09-13T10:32:23.109Z,17.00
2022-09-13T10:34:51.021Z,16.70
2022-09-13T10:37:26.511Z,16.80
2022-09-13T10:39:59.247Z,16.60
2022-09-13T10:42:28.200Z,16.60
2022-09-13T10:44:57.221Z,16.60
2022-09-13T10:47:34.940Z,16.80
2022-09-13T10:50:18.965Z,17.00
2022-09-13T10:52:50.296Z,17.40
2022-09-13T10:55:20.389Z,17.60
2022-09-13T10:57:50.167Z,17.70
2022-09-13T11:00:32.497Z,17.40
2022-09-13T11:03:05.571Z,17.70
2022-09-13T11:05:38.104Z,17.80
2022-09-13T11:08:36.579Z,17.90
2022-09-13T11:11:10.436Z,18.00
2022-09-13T11:13:55.263Z,18.10
2022-09-13T11:16:28.053Z,18.30
2022-09-13T11:19:16.481Z,18.20
2022-09-13T11:22:10.730Z,18.40
2022-09-13T11:24:49.658Z,19.00
2022-09-13T11:27:34.790Z,19.10
2022-09-13T11:30:21.160Z,19.30
2022-09-13T11:33:23.203Z,19.60
2022-09-13T11:36:27.242Z,18.80
2022-09-13T11:39:03.167Z,18.50
2022-09-13T11:42:01.067Z,18.20
2022-09-13T11:44:51.937Z,17.90
2022-09-13T11:47:38.046Z,17.90
2022-09-13T11:50:23.513Z,18.20
2022-09-13T11:53:02.319Z,18.60
2022-09-13T11:56:07.035Z,19.20
2022-09-13T11:58:56.274Z,19.60
2022-09-13T12:01:30.753Z,19.80
2022-09-13T12:04:20.122Z,19.90
2022-09-13T12:07:14.648Z,20.50
2022-09-13T12:09:53.853Z,21.10
2022-09-13T12:12:26.241Z,21.60
2022-09-13T12:15:00.920Z,21.70
2022-09-13T12:17:42.003Z,22.10
2022-09-13T12:20:19.860Z,22.20
2022-09-13T12:22:49.523Z,22.90
2022-09-13T12:25:24.911Z,23.80
2022-09-13T12:28:30.231Z,24.30
2022-09-13T12:31:02.529Z,25.40
2022-09-13T12:33:29.890Z,24.20
2022-09-13T12:36:19.504Z,25.50
2022-09-13T12:39:40.425Z,25.60
2022-09-13T12:42:24.559Z,24.40
2022-09-13T12:45:07.341Z,23.30
2022-09-13T12:48:00.499Z,24.10
2022-09-13T12:50:48.409Z,24.40
2022-09-13T12:53:24.959Z,26.60
2022-09-13T12:56:03.676Z,27.70
2022-09-13T12:58:58.531Z,28.60
2022-09-13T13:01:27.999Z,26.30
2022-09-13T13:03:59.480Z,27.50
2022-09-13T13:06:59.678Z,28.00
2022-09-13T13:09:47.768Z,28.00
2022-09-13T13:12:26.554Z,28.00
2022-09-13T13:14:54.085Z,28.90
2022-09-13T13:17:49.155Z,29.60
2022-09-13T13:20:47.440Z,29.40
2022-09-13T13:23:28.244Z,31.90
2022-09-13T13:26:03.053Z,31.20
2022-09-13T13:28:45.177Z,28.60
2022-09-13T13:31:24.485Z,30.00
2022-09-13T13:33:56.013Z,30.10
2022-09-13T13:36:35.897Z,31.40
2022-09-13T13:39:03.124Z,31.30
2022-09-13T13:41:38.479Z,31.90
2022-09-13T13:44:20.772Z,31.20
2022-09-13T13:46:53.274Z,33.50
2022-09-13T13:49:32.318Z,33.50
2022-09-13T13:52:11.611Z,34.00
2022-09-13T13:55:06.534Z,34.70
2022-09-13T13:57:57.445Z,33.90
2022-09-13T14:00:27.078Z,35.20
2022-09-13T14:03:02.895Z,33.20
2022-09-13T14:05:48.416Z,32.40
2022-09-13T14:08:33.252Z,33.10
2022-09-13T14:11:10.515Z,33.40
2022-09-13T14:14:05.234Z,33.40
2022-09-13T14:16:56.983Z,33.70
2022-09-13T14:19:42.624Z,33.30
2022-09-13T14:22:19.546Z,31.60
2022-09-13T14:24:48.962Z,31.70
2022-09-13T14:27:36.253Z,32.40
2022-09-13T14:30:16.054Z,34.40
2022-09-13T14:32:45.595Z,34.00
2022-09-13T14:35:37.616Z,33.70
2022-09-13T14:38:35.865Z,35.00
2022-09-13T14:41:15.861Z,36.60
2022-09-13T14:43:44.525Z,37.60
2022-09-13T14:46:11.629Z,37.80
2022-09-13T14:48:46.200Z,36.70
2022-09-13T14:51:25.234Z,33.80
2022-09-13T14:53:56.966Z,31.70
2022-09-13T14:56:33.823Z,31.00
2022-09-13T14:59:05.478Z,32.60
2022-09-13T15:01:35.976Z,33.50
2022-09-13T15:04:04.843Z,33.70
2022-09-13T15:06:40.535Z,34.00
2022-09-13T15:09:10.515Z,34.80
2022-09-13T15:11:43.115Z,35.00
2022-09-13T15:14:20.135Z,33.00
2022-09-13T15:16:54.169Z,31.30
2022-09-13T15:19:24.400Z,31.50
2022-09-13T15:21:51.567Z,31.50
2022-09-13T15:24:34.170Z,30.90
2022-09-13T15:27:16.900Z,31.60
2022-09-13T15:29:50.166Z,31.20
2022-09-13T15:32:44.432Z,32.20
2022-09-13T15:35:35.473Z,31.30
2022-09-13T15:38:17.161Z,30.80
2022-09-13T15:40:58.166Z,31.60
2022-09-13T15:43:25.306Z,32.40
2022-09-13T15:45:52.332Z,30.70
2022-09-13T15:48:30.807Z,29.70
2022-09-13T15:51:12.510Z,30.00
2022-09-13T15:53:42.366Z,28.30
2022-09-13T15:56:13.264Z,28.60
2022-09-13T15:58:40.928Z,29.20
2022-09-13T16:01:10.215Z,28.90
2022-09-13T16:03:37.415Z,27.20
2022-09-13T16:06:05.085Z,26.70
2022-09-13T16:08:31.942Z,25.80
2022-09-13T16:10:59.212Z,24.90
2022-09-13T16:13:26.122Z,25.00
2022-09-13T16:15:57.565Z,26.00
2022-09-13T16:18:28.247Z,26.40
2022-09-13T16:20:55.506Z,27.50
2022-09-13T16:23:22.746Z,28.00
2022-09-13T16:25:55.337Z,27.80
2022-09-13T16:28:22.537Z,28.70
2022-09-13T16:31:20.480Z,29.30
2022-09-13T16:33:48.622Z,29.30
2022-09-13T16:36:15.511Z,29.10
2022-09-13T16:38:42.360Z,29.10
2022-09-13T16:41:09.912Z,28.40
2022-09-13T16:43:37.360Z,27.90
2022-09-13T16:46:09.920Z,27.20
2022-09-13T16:48:37.078Z,27.00
2022-09-13T16:51:09.411Z,26.80
2022-09-13T16:53:39.029Z,26.60
2022-09-13T16:56:15.675Z,26.70
2022-09-13T16:58:47.046Z,26.40
2022-09-13T17:01:16.325Z,26.10
2022-09-13T17:03:44.109Z,25.60
2022-09-13T17:06:13.781Z,25.30
2022-09-13T17:08:45.967Z,25.00
2022-09-13T17:11:15.424Z,24.90
2022-09-13T17:13:42.529Z,24.70
2022-09-13T17:19:04.933Z,24.40
2022-09-13T17:21:33.869Z,24.10
2022-09-13T17:24:01.967Z,23.90
2022-09-13T17:26:29.030Z,23.80
2022-09-13T17:28:55.981Z,23.80
2022-09-13T17:31:25.637Z,23.70
2022-09-13T17:33:53.374Z,23.50
2022-09-13T17:36:20.829Z,23.40
2022-09-13T17:38:48.048Z,23.30
2022-09-13T17:41:18.150Z,23.20
2022-09-13T17:43:46.866Z,23.10
2022-09-13T17:46:16.490Z,22.80
2022-09-13T17:48:44.042Z,22.70
2022-09-13T17:51:15.994Z,22.50
2022-09-13T17:53:51.316Z,22.30
2022-09-13T17:56:20.356Z,22.20
2022-09-13T17:58:50.869Z,22.20
2022-09-13T18:01:18.223Z,21.90
2022-09-13T18:03:45.245Z,21.70
2022-09-13T18:06:12.667Z,21.60
2022-09-13T18:08:40.049Z,21.40
2022-09-13T18:11:14.017Z,21.10
2022-09-13T18:13:42.858Z,21.00
2022-09-13T18:16:17.261Z,20.90
2022-09-13T18:18:47.563Z,20.80
2022-09-13T18:21:16.846Z,21.00
2022-09-13T18:23:43.711Z,20.70
2022-09-13T18:26:16.686Z,20.80
2022-09-13T18:28:44.074Z,20.70
2022-09-13T18:31:15.362Z,20.80
2022-09-13T18:33:43.179Z,20.80
2022-09-13T18:36:16.677Z,20.60
2022-09-13T18:38:45.947Z,20.30
2022-09-13T18:41:15.696Z,20.30
2022-09-13T18:43:45.338Z,19.80
2022-09-13T18:46:14.647Z,19.60
2022-09-13T18:48:46.730Z,19.40
2022-09-13T18:51:20.121Z,19.20
2022-09-13T18:53:47.822Z,19.20
2022-09-13T18:56:16.962Z,19.30
2022-09-13T18:58:44.523Z,19.30
2022-09-13T19:01:17.640Z,19.40
2022-09-13T19:03:53.929Z,19.50
2022-09-13T19:06:25.231Z,19.60
2022-09-13T19:08:53.598Z,19.50
2022-09-13T19:11:44.560Z,19.30
2022-09-13T19:14:10.904Z,19.40
2022-09-13T19:16:37.827Z,19.40
2022-09-13T19:19:04.807Z,19.10
2022-09-13T19:21:33.240Z,18.90
2022-09-13T19:24:04.026Z,19.00
2022-09-13T19:26:36.729Z,19.10
2022-09-13T19:29:15.266Z,19.30
2022-09-13T19:31:44.992Z,19.40
2022-09-13T19:34:12.359Z,19.40
2022-09-13T19:36:40.064Z,19.50
2022-09-13T19:39:07.675Z,19.50
2022-09-13T19:41:35.534Z,19.00
2022-09-13T19:44:03.160Z,18.90
2022-09-13T19:46:35.822Z,18.90
2022-09-13T19:49:03.654Z,18.90
2022-09-13T19:51:39.152Z,18.80
2022-09-13T19:54:07.836Z,18.90
2022-09-13T19:56:38.147Z,18.90
2022-09-13T19:59:07.054Z,18.90
2022-09-13T20:01:42.333Z,18.60
2022-09-13T20:04:15.240Z,18.60
2022-09-13T20:06:45.068Z,18.50
2022-09-13T20:09:13.568Z,18.50
2022-09-13T20:11:45.058Z,18.30
2022-09-13T20:14:14.120Z,18.50
2022-09-13T20:16:42.799Z,18.40
2022-09-13T20:19:36.783Z,18.40
2022-09-13T20:22:01.373Z,18.40
2022-09-13T20:24:28.340Z,18.50
2022-09-13T20:26:55.255Z,18.50
2022-09-13T20:29:22.132Z,18.40
2022-09-13T20:31:49.095Z,18.40
2022-09-13T20:34:16.152Z,18.30
2022-09-13T20:36:47.297Z,18.30
2022-09-13T20:39:15.273Z,18.30
2022-09-13T20:41:43.462Z,18.20
2022-09-13T20:44:10.950Z,18.20
2022-09-13T20:46:39.307Z,18.10
2022-09-13T20:49:08.600Z,17.90
2022-09-13T20:51:35.610Z,17.80
2022-09-13T20:54:02.561Z,17.70
2022-09-13T20:56:30.578Z,17.70
2022-09-13T20:59:00.353Z,17.60
2022-09-13T21:01:29.707Z,17.60
2022-09-13T21:03:57.736Z,17.60
2022-09-13T21:06:27.351Z,17.50
2022-09-13T21:08:56.518Z,17.60
2022-09-13T21:11:33.262Z,17.70
2022-09-13T21:14:03.705Z,17.50
2022-09-13T21:16:36.262Z,17.40
2022-09-13T21:19:03.962Z,17.30
2022-09-13T21:21:34.652Z,17.10
2022-09-13T21:24:04.585Z,16.90
2022-09-13T21:26:32.464Z,16.80
2022-09-13T21:28:59.766Z,16.70
2022-09-13T21:31:31.431Z,16.90
2022-09-13T21:34:07.503Z,16.90
2022-09-13T21:36:36.021Z,17.00
2022-09-13T21:39:04.270Z,16.90
2022-09-13T21:41:31.457Z,16.80
2022-09-13T21:43:58.586Z,16.80
2022-09-13T21:46:30.555Z,16.50
2022-09-13T21:49:02.514Z,16.40
2022-09-13T21:51:41.111Z,16.50
2022-09-13T21:54:11.145Z,16.30
2022-09-13T21:56:42.119Z,16.30
2022-09-13T21:59:14.744Z,16.20
2022-09-13T22:01:43.838Z,16.00
2022-09-13T22:04:17.169Z,16.00
2022-09-13T22:06:51.501Z,15.90
2022-09-13T22:09:19.377Z,15.90
2022-09-13T22:11:48.255Z,15.90
2022-09-13T22:14:18.633Z,15.80
2022-09-13T22:16:49.395Z,15.90
2022-09-13T22:19:18.173Z,15.90
2022-09-13T22:21:49.401Z,15.90
2022-09-13T22:24:22.185Z,15.90
2022-09-13T22:26:51.312Z,15.80
2022-09-13T22:29:18.869Z,15.80
2022-09-13T22:31:48.412Z,15.70
2022-09-13T22:34:21.289Z,15.70
2022-09-13T22:36:48.303Z,15.60
2022-09-13T22:39:16.729Z,15.60
2022-09-13T22:41:44.062Z,15.80
2022-09-13T22:44:12.031Z,15.70
2022-09-13T22:46:41.921Z,15.80
2022-09-13T22:49:15.844Z,15.80
2022-09-13T22:51:45.257Z,15.80
2022-09-13T22:54:13.608Z,15.80
2022-09-13T22:56:41.075Z,15.90
2022-09-13T22:59:19.818Z,15.80
2022-09-13T23:01:47.321Z,15.70
2022-09-13T23:04:15.214Z,15.70
2022-09-13T23:06:45.965Z,15.40
2022-09-13T23:09:18.411Z,15.40
2022-09-13T23:11:45.884Z,15.20
2022-09-13T23:14:14.764Z,15.10
2022-09-13T23:16:54.210Z,15.00
2022-09-13T23:19:23.122Z,14.90
2022-09-13T23:21:52.850Z,15.00
2022-09-13T23:24:20.682Z,14.90
2022-09-13T23:26:47.653Z,15.00
2022-09-13T23:29:17.267Z,15.00
2022-09-13T23:31:44.429Z,15.00
2022-09-13T23:34:12.056Z,15.00
2022-09-13T23:36:41.547Z,15.10
2022-09-13T23:39:16.737Z,15.20
2022-09-13T23:41:46.023Z,15.30
2022-09-13T23:44:13.536Z,15.30
2022-09-13T23:46:40.539Z,15.30
2022-09-13T23:49:07.527Z,15.10
2022-09-13T23:51:34.621Z,15.10
2022-09-13T23:54:01.928Z,15.20
2022-09-13T23:56:30.701Z,15.30
2022-09-13T23:58:59.182Z,15.20
